sensor_id;sensor_type;location;lat;lon;timestamp;P1;durP1;ratioP1;P2;durP2;ratioP2
61085;SDS011;46967;48.876;2.136;2023-04-24T00:00:03;3.55;;;1.65;;
61085;SDS011;46967;48.876;2.136;2023-04-24T00:02:37;5.38;;;1.75;;
61085;SDS011;46967;48.876;2.136;2023-04-24T00:05:04;3.22;;;1.77;;
61085;SDS011;46967;48.876;2.136;2023-04-24T00:07:30;3.78;;;1.50;;
61085;SDS011;46967;48.876;2.136;2023-04-24T00:09:56;4.85;;;1.60;;
61085;SDS011;46967;48.876;2.136;2023-04-24T00:12:21;3.83;;;1.48;;
61085;SDS011;46967;48.876;2.136;2023-04-24T00:14:46;5.65;;;2.00;;
61085;SDS011;46967;48.876;2.136;2023-04-24T00:17:12;6.53;;;1.77;;
61085;SDS011;46967;48.876;2.136;2023-04-24T00:19:38;8.10;;;2.15;;
61085;SDS011;46967;48.876;2.136;2023-04-24T00:22:03;9.75;;;1.98;;
61085;SDS011;46967;48.876;2.136;2023-04-24T00:24:29;2.90;;;1.60;;
61085;SDS011;46967;48.876;2.136;2023-04-24T00:26:54;5.93;;;2.38;;
61085;SDS011;46967;48.876;2.136;2023-04-24T00:29:20;5.13;;;1.60;;
61085;SDS011;46967;48.876;2.136;2023-04-24T00:31:45;5.22;;;1.80;;
61085;SDS011;46967;48.876;2.136;2023-04-24T00:34:11;7.00;;;2.15;;
61085;SDS011;46967;48.876;2.136;2023-04-24T00:36:36;6.55;;;2.00;;
61085;SDS011;46967;48.876;2.136;2023-04-24T00:39:02;9.35;;;1.70;;
61085;SDS011;46967;48.876;2.136;2023-04-24T00:41:27;9.25;;;2.20;;
61085;SDS011;46967;48.876;2.136;2023-04-24T00:43:52;7.30;;;2.15;;
61085;SDS011;46967;48.876;2.136;2023-04-24T00:46:18;5.35;;;1.60;;
61085;SDS011;46967;48.876;2.136;2023-04-24T00:48:44;6.10;;;2.05;;
61085;SDS011;46967;48.876;2.136;2023-04-24T00:51:09;10.20;;;1.90;;
61085;SDS011;46967;48.876;2.136;2023-04-24T00:53:35;5.03;;;1.95;;
61085;SDS011;46967;48.876;2.136;2023-04-24T00:56:00;8.00;;;2.08;;
61085;SDS011;46967;48.876;2.136;2023-04-24T00:58:26;6.70;;;1.77;;
61085;SDS011;46967;48.876;2.136;2023-04-24T01:00:52;4.95;;;2.00;;
61085;SDS011;46967;48.876;2.136;2023-04-24T01:03:21;7.07;;;1.65;;
61085;SDS011;46967;48.876;2.136;2023-04-24T01:05:49;7.22;;;2.30;;
61085;SDS011;46967;48.876;2.136;2023-04-24T01:08:14;8.80;;;2.22;;
61085;SDS011;46967;48.876;2.136;2023-04-24T01:10:40;7.35;;;2.25;;
61085;SDS011;46967;48.876;2.136;2023-04-24T01:13:07;6.43;;;1.88;;
61085;SDS011;46967;48.876;2.136;2023-04-24T01:15:33;7.43;;;1.80;;
61085;SDS011;46967;48.876;2.136;2023-04-24T01:17:59;4.75;;;1.88;;
61085;SDS011;46967;48.876;2.136;2023-04-24T01:20:24;5.20;;;2.00;;
61085;SDS011;46967;48.876;2.136;2023-04-24T01:22:51;7.03;;;1.80;;
61085;SDS011;46967;48.876;2.136;2023-04-24T01:25:16;6.00;;;1.70;;
61085;SDS011;46967;48.876;2.136;2023-04-24T01:27:42;15.77;;;2.42;;
61085;SDS011;46967;48.876;2.136;2023-04-24T01:30:08;6.35;;;2.05;;
61085;SDS011;46967;48.876;2.136;2023-04-24T01:32:34;5.55;;;1.60;;
61085;SDS011;46967;48.876;2.136;2023-04-24T01:35:01;5.68;;;1.95;;
61085;SDS011;46967;48.876;2.136;2023-04-24T01:37:27;6.68;;;2.08;;
61085;SDS011;46967;48.876;2.136;2023-04-24T01:39:52;8.13;;;1.98;;
61085;SDS011;46967;48.876;2.136;2023-04-24T01:42:17;2.92;;;1.52;;
61085;SDS011;46967;48.876;2.136;2023-04-24T01:44:43;5.07;;;1.75;;
61085;SDS011;46967;48.876;2.136;2023-04-24T01:47:09;8.20;;;1.83;;
61085;SDS011;46967;48.876;2.136;2023-04-24T01:49:35;4.40;;;1.48;;
61085;SDS011;46967;48.876;2.136;2023-04-24T01:52:02;7.18;;;1.95;;
61085;SDS011;46967;48.876;2.136;2023-04-24T01:54:28;15.15;;;2.00;;
61085;SDS011;46967;48.876;2.136;2023-04-24T01:56:53;8.80;;;1.55;;
61085;SDS011;46967;48.876;2.136;2023-04-24T01:59:18;6.65;;;1.50;;
61085;SDS011;46967;48.876;2.136;2023-04-24T02:01:46;6.60;;;1.90;;
61085;SDS011;46967;48.876;2.136;2023-04-24T02:04:11;7.30;;;1.52;;
61085;SDS011;46967;48.876;2.136;2023-04-24T02:06:37;5.78;;;2.25;;
61085;SDS011;46967;48.876;2.136;2023-04-24T02:09:02;5.43;;;1.80;;
61085;SDS011;46967;48.876;2.136;2023-04-24T02:11:28;9.88;;;1.90;;
61085;SDS011;46967;48.876;2.136;2023-04-24T02:13:53;4.45;;;1.40;;
61085;SDS011;46967;48.876;2.136;2023-04-24T02:16:19;8.90;;;1.40;;
61085;SDS011;46967;48.876;2.136;2023-04-24T02:18:44;5.07;;;1.70;;
61085;SDS011;46967;48.876;2.136;2023-04-24T02:21:10;10.13;;;1.75;;
61085;SDS011;46967;48.876;2.136;2023-04-24T02:23:35;4.18;;;1.55;;
61085;SDS011;46967;48.876;2.136;2023-04-24T02:26:01;6.32;;;1.33;;
61085;SDS011;46967;48.876;2.136;2023-04-24T02:28:26;4.60;;;1.50;;
61085;SDS011;46967;48.876;2.136;2023-04-24T02:30:52;5.30;;;1.58;;
61085;SDS011;46967;48.876;2.136;2023-04-24T02:33:17;6.28;;;1.75;;
61085;SDS011;46967;48.876;2.136;2023-04-24T02:35:42;5.35;;;1.55;;
61085;SDS011;46967;48.876;2.136;2023-04-24T02:38:08;3.63;;;1.40;;
61085;SDS011;46967;48.876;2.136;2023-04-24T02:40:33;6.70;;;1.85;;
61085;SDS011;46967;48.876;2.136;2023-04-24T02:42:58;3.72;;;1.42;;
61085;SDS011;46967;48.876;2.136;2023-04-24T02:45:24;5.97;;;1.88;;
61085;SDS011;46967;48.876;2.136;2023-04-24T02:47:49;4.68;;;1.50;;
61085;SDS011;46967;48.876;2.136;2023-04-24T02:50:14;7.88;;;1.77;;
61085;SDS011;46967;48.876;2.136;2023-04-24T02:52:40;5.97;;;1.77;;
61085;SDS011;46967;48.876;2.136;2023-04-24T02:55:05;8.65;;;1.65;;
61085;SDS011;46967;48.876;2.136;2023-04-24T02:57:32;6.88;;;1.48;;
61085;SDS011;46967;48.876;2.136;2023-04-24T02:59:58;8.90;;;2.08;;
61085;SDS011;46967;48.876;2.136;2023-04-24T03:02:23;3.08;;;1.50;;
61085;SDS011;46967;48.876;2.136;2023-04-24T03:04:49;5.38;;;1.52;;
61085;SDS011;46967;48.876;2.136;2023-04-24T03:07:14;7.38;;;1.83;;
61085;SDS011;46967;48.876;2.136;2023-04-24T03:09:40;7.93;;;1.67;;
61085;SDS011;46967;48.876;2.136;2023-04-24T03:12:05;7.03;;;1.90;;
61085;SDS011;46967;48.876;2.136;2023-04-24T03:14:31;7.75;;;1.85;;
61085;SDS011;46967;48.876;2.136;2023-04-24T03:16:56;6.45;;;1.63;;
61085;SDS011;46967;48.876;2.136;2023-04-24T03:19:22;6.60;;;1.88;;
61085;SDS011;46967;48.876;2.136;2023-04-24T03:21:47;12.95;;;2.35;;
61085;SDS011;46967;48.876;2.136;2023-04-24T03:24:13;6.45;;;2.25;;
61085;SDS011;46967;48.876;2.136;2023-04-24T03:26:38;3.00;;;1.52;;
61085;SDS011;46967;48.876;2.136;2023-04-24T03:29:04;6.15;;;1.95;;
61085;SDS011;46967;48.876;2.136;2023-04-24T03:31:29;9.00;;;1.60;;
61085;SDS011;46967;48.876;2.136;2023-04-24T03:33:55;4.60;;;1.73;;
61085;SDS011;46967;48.876;2.136;2023-04-24T03:36:20;7.97;;;1.83;;
61085;SDS011;46967;48.876;2.136;2023-04-24T03:38:46;9.50;;;1.67;;
61085;SDS011;46967;48.876;2.136;2023-04-24T03:41:11;5.47;;;1.63;;
61085;SDS011;46967;48.876;2.136;2023-04-24T03:43:37;4.55;;;1.58;;
61085;SDS011;46967;48.876;2.136;2023-04-24T03:46:03;3.85;;;1.52;;
61085;SDS011;46967;48.876;2.136;2023-04-24T03:48:28;7.90;;;2.00;;
61085;SDS011;46967;48.876;2.136;2023-04-24T03:50:54;7.18;;;2.03;;
61085;SDS011;46967;48.876;2.136;2023-04-24T03:53:19;5.45;;;1.98;;
61085;SDS011;46967;48.876;2.136;2023-04-24T03:55:45;5.43;;;1.75;;
61085;SDS011;46967;48.876;2.136;2023-04-24T03:58:11;4.75;;;1.80;;
61085;SDS011;46967;48.876;2.136;2023-04-24T04:00:36;7.28;;;1.75;;
61085;SDS011;46967;48.876;2.136;2023-04-24T04:03:02;5.78;;;2.10;;
61085;SDS011;46967;48.876;2.136;2023-04-24T04:05:28;10.52;;;2.55;;
61085;SDS011;46967;48.876;2.136;2023-04-24T04:07:53;7.00;;;1.80;;
61085;SDS011;46967;48.876;2.136;2023-04-24T04:10:19;4.50;;;2.15;;
61085;SDS011;46967;48.876;2.136;2023-04-24T04:12:44;5.72;;;1.92;;
61085;SDS011;46967;48.876;2.136;2023-04-24T04:15:10;7.53;;;1.85;;
61085;SDS011;46967;48.876;2.136;2023-04-24T04:17:35;5.25;;;3.30;;
61085;SDS011;46967;48.876;2.136;2023-04-24T04:20:00;8.55;;;1.85;;
61085;SDS011;46967;48.876;2.136;2023-04-24T04:22:26;8.13;;;2.33;;
61085;SDS011;46967;48.876;2.136;2023-04-24T04:24:52;6.47;;;2.40;;
61085;SDS011;46967;48.876;2.136;2023-04-24T04:27:17;4.72;;;1.50;;
61085;SDS011;46967;48.876;2.136;2023-04-24T04:29:43;7.53;;;2.08;;
61085;SDS011;46967;48.876;2.136;2023-04-24T04:32:09;10.27;;;2.00;;
61085;SDS011;46967;48.876;2.136;2023-04-24T04:34:35;6.05;;;2.63;;
61085;SDS011;46967;48.876;2.136;2023-04-24T04:37:02;6.07;;;1.73;;
61085;SDS011;46967;48.876;2.136;2023-04-24T04:39:28;8.88;;;2.20;;
61085;SDS011;46967;48.876;2.136;2023-04-24T04:41:54;7.38;;;1.85;;
61085;SDS011;46967;48.876;2.136;2023-04-24T04:44:20;6.65;;;2.40;;
61085;SDS011;46967;48.876;2.136;2023-04-24T04:46:45;6.50;;;2.05;;
61085;SDS011;46967;48.876;2.136;2023-04-24T04:49:11;10.68;;;2.28;;
61085;SDS011;46967;48.876;2.136;2023-04-24T04:51:36;7.95;;;2.10;;
61085;SDS011;46967;48.876;2.136;2023-04-24T04:54:01;8.40;;;2.28;;
61085;SDS011;46967;48.876;2.136;2023-04-24T04:56:27;8.15;;;2.35;;
61085;SDS011;46967;48.876;2.136;2023-04-24T04:58:52;4.63;;;2.20;;
61085;SDS011;46967;48.876;2.136;2023-04-24T05:01:18;9.07;;;2.72;;
61085;SDS011;46967;48.876;2.136;2023-04-24T05:03:43;6.90;;;2.42;;
61085;SDS011;46967;48.876;2.136;2023-04-24T05:06:09;9.80;;;2.15;;
61085;SDS011;46967;48.876;2.136;2023-04-24T05:08:34;2.90;;;1.73;;
61085;SDS011;46967;48.876;2.136;2023-04-24T05:10:59;7.90;;;1.90;;
61085;SDS011;46967;48.876;2.136;2023-04-24T05:13:25;7.28;;;2.25;;
61085;SDS011;46967;48.876;2.136;2023-04-24T05:15:51;5.97;;;2.03;;
61085;SDS011;46967;48.876;2.136;2023-04-24T05:18:16;7.45;;;2.00;;
61085;SDS011;46967;48.876;2.136;2023-04-24T05:20:41;4.45;;;1.83;;
61085;SDS011;46967;48.876;2.136;2023-04-24T05:23:08;5.97;;;1.92;;
61085;SDS011;46967;48.876;2.136;2023-04-24T05:25:34;6.97;;;2.10;;
61085;SDS011;46967;48.876;2.136;2023-04-24T05:28:00;8.50;;;2.30;;
61085;SDS011;46967;48.876;2.136;2023-04-24T05:30:26;4.43;;;2.10;;
61085;SDS011;46967;48.876;2.136;2023-04-24T05:32:52;9.10;;;2.53;;
61085;SDS011;46967;48.876;2.136;2023-04-24T05:35:17;8.98;;;2.88;;
61085;SDS011;46967;48.876;2.136;2023-04-24T05:37:43;6.50;;;2.20;;
61085;SDS011;46967;48.876;2.136;2023-04-24T05:40:09;8.05;;;2.08;;
61085;SDS011;46967;48.876;2.136;2023-04-24T05:42:35;6.32;;;2.63;;
61085;SDS011;46967;48.876;2.136;2023-04-24T05:45:00;6.20;;;2.50;;
61085;SDS011;46967;48.876;2.136;2023-04-24T05:47:26;9.57;;;2.75;;
61085;SDS011;46967;48.876;2.136;2023-04-24T05:49:51;5.50;;;2.22;;
61085;SDS011;46967;48.876;2.136;2023-04-24T05:52:18;7.40;;;2.47;;
61085;SDS011;46967;48.876;2.136;2023-04-24T05:54:43;10.93;;;2.38;;
61085;SDS011;46967;48.876;2.136;2023-04-24T05:57:08;6.72;;;2.47;;
61085;SDS011;46967;48.876;2.136;2023-04-24T05:59:36;8.30;;;3.90;;
61085;SDS011;46967;48.876;2.136;2023-04-24T06:02:03;13.10;;;3.13;;
61085;SDS011;46967;48.876;2.136;2023-04-24T06:04:29;9.00;;;4.40;;
61085;SDS011;46967;48.876;2.136;2023-04-24T06:06:54;8.43;;;3.55;;
61085;SDS011;46967;48.876;2.136;2023-04-24T06:09:24;7.85;;;3.20;;
61085;SDS011;46967;48.876;2.136;2023-04-24T06:11:49;7.07;;;2.97;;
61085;SDS011;46967;48.876;2.136;2023-04-24T06:14:17;11.20;;;3.17;;
61085;SDS011;46967;48.876;2.136;2023-04-24T06:16:43;9.52;;;2.90;;
61085;SDS011;46967;48.876;2.136;2023-04-24T06:19:09;7.20;;;3.33;;
61085;SDS011;46967;48.876;2.136;2023-04-24T06:21:34;8.65;;;3.40;;
61085;SDS011;46967;48.876;2.136;2023-04-24T06:24:00;14.02;;;3.60;;
61085;SDS011;46967;48.876;2.136;2023-04-24T06:26:25;6.53;;;3.30;;
61085;SDS011;46967;48.876;2.136;2023-04-24T06:28:51;7.25;;;3.58;;
61085;SDS011;46967;48.876;2.136;2023-04-24T06:31:18;8.57;;;3.95;;
61085;SDS011;46967;48.876;2.136;2023-04-24T06:33:44;13.15;;;3.80;;
61085;SDS011;46967;48.876;2.136;2023-04-24T06:36:09;7.05;;;3.13;;
61085;SDS011;46967;48.876;2.136;2023-04-24T06:38:35;9.90;;;3.63;;
61085;SDS011;46967;48.876;2.136;2023-04-24T06:41:00;10.23;;;3.30;;
61085;SDS011;46967;48.876;2.136;2023-04-24T06:43:26;8.70;;;3.72;;
61085;SDS011;46967;48.876;2.136;2023-04-24T06:45:51;8.55;;;3.28;;
61085;SDS011;46967;48.876;2.136;2023-04-24T06:48:17;9.13;;;4.07;;
61085;SDS011;46967;48.876;2.136;2023-04-24T06:50:42;6.00;;;3.58;;
61085;SDS011;46967;48.876;2.136;2023-04-24T06:53:07;8.40;;;4.10;;
61085;SDS011;46967;48.876;2.136;2023-04-24T06:55:35;8.48;;;3.70;;
61085;SDS011;46967;48.876;2.136;2023-04-24T06:58:01;7.78;;;3.67;;
61085;SDS011;46967;48.876;2.136;2023-04-24T07:00:26;9.80;;;3.58;;
61085;SDS011;46967;48.876;2.136;2023-04-24T07:02:51;7.93;;;3.88;;
61085;SDS011;46967;48.876;2.136;2023-04-24T07:05:17;7.95;;;3.80;;
61085;SDS011;46967;48.876;2.136;2023-04-24T07:07:45;13.38;;;3.67;;
61085;SDS011;46967;48.876;2.136;2023-04-24T07:10:11;7.53;;;3.88;;
61085;SDS011;46967;48.876;2.136;2023-04-24T07:12:38;8.70;;;3.83;;
61085;SDS011;46967;48.876;2.136;2023-04-24T07:15:03;7.20;;;3.33;;
61085;SDS011;46967;48.876;2.136;2023-04-24T07:17:30;9.65;;;4.05;;
61085;SDS011;46967;48.876;2.136;2023-04-24T07:19:55;11.23;;;3.85;;
61085;SDS011;46967;48.876;2.136;2023-04-24T07:22:20;8.10;;;4.10;;
61085;SDS011;46967;48.876;2.136;2023-04-24T07:24:46;10.75;;;4.38;;
61085;SDS011;46967;48.876;2.136;2023-04-24T07:27:11;15.15;;;3.67;;
61085;SDS011;46967;48.876;2.136;2023-04-24T07:29:37;9.00;;;4.03;;
61085;SDS011;46967;48.876;2.136;2023-04-24T07:32:03;8.68;;;4.10;;
61085;SDS011;46967;48.876;2.136;2023-04-24T07:34:28;9.43;;;4.13;;
61085;SDS011;46967;48.876;2.136;2023-04-24T07:36:54;10.35;;;4.93;;
61085;SDS011;46967;48.876;2.136;2023-04-24T07:39:19;11.65;;;4.50;;
61085;SDS011;46967;48.876;2.136;2023-04-24T07:41:45;9.30;;;4.72;;
61085;SDS011;46967;48.876;2.136;2023-04-24T07:44:10;10.93;;;5.22;;
61085;SDS011;46967;48.876;2.136;2023-04-24T07:46:35;9.90;;;4.70;;
61085;SDS011;46967;48.876;2.136;2023-04-24T07:49:01;11.68;;;5.15;;
61085;SDS011;46967;48.876;2.136;2023-04-24T07:51:26;15.85;;;4.78;;
61085;SDS011;46967;48.876;2.136;2023-04-24T07:53:55;12.30;;;5.35;;
61085;SDS011;46967;48.876;2.136;2023-04-24T07:56:21;15.52;;;5.38;;
61085;SDS011;46967;48.876;2.136;2023-04-24T07:58:46;10.30;;;4.50;;
61085;SDS011;46967;48.876;2.136;2023-04-24T08:01:12;11.52;;;5.07;;
61085;SDS011;46967;48.876;2.136;2023-04-24T08:03:37;14.50;;;5.35;;
61085;SDS011;46967;48.876;2.136;2023-04-24T08:06:02;14.07;;;5.70;;
61085;SDS011;46967;48.876;2.136;2023-04-24T08:08:28;11.45;;;5.30;;
61085;SDS011;46967;48.876;2.136;2023-04-24T08:10:53;8.27;;;5.32;;
61085;SDS011;46967;48.876;2.136;2023-04-24T08:13:19;10.05;;;5.13;;
61085;SDS011;46967;48.876;2.136;2023-04-24T08:15:45;10.35;;;5.63;;
61085;SDS011;46967;48.876;2.136;2023-04-24T08:18:10;9.00;;;5.43;;
61085;SDS011;46967;48.876;2.136;2023-04-24T08:20:37;11.07;;;5.88;;
61085;SDS011;46967;48.876;2.136;2023-04-24T08:23:02;10.70;;;5.45;;
61085;SDS011;46967;48.876;2.136;2023-04-24T08:25:28;11.13;;;6.20;;
61085;SDS011;46967;48.876;2.136;2023-04-24T08:27:53;9.27;;;5.22;;
61085;SDS011;46967;48.876;2.136;2023-04-24T08:30:19;10.15;;;6.75;;
61085;SDS011;46967;48.876;2.136;2023-04-24T08:32:45;12.15;;;5.35;;
61085;SDS011;46967;48.876;2.136;2023-04-24T08:35:11;17.52;;;6.20;;
61085;SDS011;46967;48.876;2.136;2023-04-24T08:37:36;11.73;;;5.82;;
61085;SDS011;46967;48.876;2.136;2023-04-24T08:40:03;12.07;;;5.55;;
61085;SDS011;46967;48.876;2.136;2023-04-24T08:42:34;9.95;;;5.20;;
61085;SDS011;46967;48.876;2.136;2023-04-24T08:45:02;8.93;;;4.65;;
61085;SDS011;46967;48.876;2.136;2023-04-24T08:47:27;9.00;;;4.45;;
61085;SDS011;46967;48.876;2.136;2023-04-24T08:49:54;14.48;;;5.30;;
61085;SDS011;46967;48.876;2.136;2023-04-24T08:52:22;13.48;;;5.60;;
61085;SDS011;46967;48.876;2.136;2023-04-24T08:54:48;11.10;;;5.38;;
61085;SDS011;46967;48.876;2.136;2023-04-24T08:57:14;9.13;;;5.75;;
61085;SDS011;46967;48.876;2.136;2023-04-24T08:59:40;9.13;;;5.50;;
61085;SDS011;46967;48.876;2.136;2023-04-24T09:02:06;9.50;;;4.93;;
61085;SDS011;46967;48.876;2.136;2023-04-24T09:04:35;9.75;;;5.10;;
61085;SDS011;46967;48.876;2.136;2023-04-24T09:07:02;8.20;;;5.40;;
61085;SDS011;46967;48.876;2.136;2023-04-24T09:09:30;10.50;;;5.47;;
61085;SDS011;46967;48.876;2.136;2023-04-24T09:11:57;9.00;;;5.65;;
61085;SDS011;46967;48.876;2.136;2023-04-24T09:14:23;9.10;;;5.18;;
61085;SDS011;46967;48.876;2.136;2023-04-24T09:16:49;8.77;;;5.32;;
61085;SDS011;46967;48.876;2.136;2023-04-24T09:19:15;6.78;;;5.35;;
61085;SDS011;46967;48.876;2.136;2023-04-24T09:21:40;9.60;;;5.68;;
61085;SDS011;46967;48.876;2.136;2023-04-24T09:24:14;12.55;;;5.78;;
61085;SDS011;46967;48.876;2.136;2023-04-24T09:26:45;9.15;;;5.57;;
61085;SDS011;46967;48.876;2.136;2023-04-24T09:29:17;10.40;;;5.45;;
61085;SDS011;46967;48.876;2.136;2023-04-24T09:31:44;8.50;;;4.90;;
61085;SDS011;46967;48.876;2.136;2023-04-24T09:34:10;10.00;;;6.10;;
61085;SDS011;46967;48.876;2.136;2023-04-24T09:36:37;9.40;;;5.22;;
61085;SDS011;46967;48.876;2.136;2023-04-24T09:39:05;8.50;;;5.32;;
61085;SDS011;46967;48.876;2.136;2023-04-24T09:41:33;9.40;;;5.30;;
61085;SDS011;46967;48.876;2.136;2023-04-24T09:44:20;9.10;;;5.05;;
61085;SDS011;46967;48.876;2.136;2023-04-24T09:46:51;6.93;;;4.80;;
61085;SDS011;46967;48.876;2.136;2023-04-24T09:49:23;9.43;;;5.40;;
61085;SDS011;46967;48.876;2.136;2023-04-24T09:51:52;14.60;;;4.90;;
61085;SDS011;46967;48.876;2.136;2023-04-24T09:54:27;8.10;;;5.28;;
61085;SDS011;46967;48.876;2.136;2023-04-24T09:56:52;8.40;;;5.55;;
61085;SDS011;46967;48.876;2.136;2023-04-24T09:59:19;12.02;;;5.45;;
61085;SDS011;46967;48.876;2.136;2023-04-24T10:01:45;9.77;;;5.20;;
61085;SDS011;46967;48.876;2.136;2023-04-24T10:04:27;12.52;;;5.13;;
61085;SDS011;46967;48.876;2.136;2023-04-24T10:06:54;11.23;;;5.15;;
61085;SDS011;46967;48.876;2.136;2023-04-24T10:09:21;8.00;;;5.40;;
61085;SDS011;46967;48.876;2.136;2023-04-24T10:11:49;7.90;;;4.80;;
61085;SDS011;46967;48.876;2.136;2023-04-24T10:14:16;9.10;;;4.72;;
61085;SDS011;46967;48.876;2.136;2023-04-24T10:16:44;8.52;;;4.85;;
61085;SDS011;46967;48.876;2.136;2023-04-24T10:19:12;7.35;;;4.07;;
61085;SDS011;46967;48.876;2.136;2023-04-24T10:21:38;6.88;;;4.28;;
61085;SDS011;46967;48.876;2.136;2023-04-24T10:24:07;8.77;;;4.05;;
61085;SDS011;46967;48.876;2.136;2023-04-24T10:26:33;6.97;;;4.20;;
61085;SDS011;46967;48.876;2.136;2023-04-24T10:28:59;10.27;;;4.30;;
61085;SDS011;46967;48.876;2.136;2023-04-24T10:31:26;9.18;;;3.97;;
61085;SDS011;46967;48.876;2.136;2023-04-24T10:36:22;6.32;;;4.20;;
61085;SDS011;46967;48.876;2.136;2023-04-24T10:38:51;8.48;;;4.00;;
61085;SDS011;46967;48.876;2.136;2023-04-24T10:41:19;6.72;;;3.83;;
61085;SDS011;46967;48.876;2.136;2023-04-24T10:43:48;9.30;;;4.80;;
61085;SDS011;46967;48.876;2.136;2023-04-24T10:46:21;9.13;;;4.68;;
61085;SDS011;46967;48.876;2.136;2023-04-24T10:48:53;6.63;;;3.92;;
61085;SDS011;46967;48.876;2.136;2023-04-24T10:51:21;10.27;;;4.13;;
61085;SDS011;46967;48.876;2.136;2023-04-24T10:53:47;7.22;;;4.13;;
61085;SDS011;46967;48.876;2.136;2023-04-24T10:56:15;7.47;;;3.85;;
61085;SDS011;46967;48.876;2.136;2023-04-24T10:58:45;10.13;;;3.90;;
61085;SDS011;46967;48.876;2.136;2023-04-24T11:01:23;6.30;;;4.30;;
61085;SDS011;46967;48.876;2.136;2023-04-24T11:03:57;7.88;;;4.15;;
61085;SDS011;46967;48.876;2.136;2023-04-24T11:09:10;8.02;;;4.30;;
61085;SDS011;46967;48.876;2.136;2023-04-24T11:11:44;8.63;;;4.20;;
61085;SDS011;46967;48.876;2.136;2023-04-24T11:14:13;10.75;;;4.22;;
61085;SDS011;46967;48.876;2.136;2023-04-24T11:24:24;7.00;;;3.05;;
61085;SDS011;46967;48.876;2.136;2023-04-24T11:26:56;6.10;;;3.88;;
61085;SDS011;46967;48.876;2.136;2023-04-24T11:29:37;5.22;;;3.25;;
61085;SDS011;46967;48.876;2.136;2023-04-24T11:32:25;7.60;;;3.50;;
61085;SDS011;46967;48.876;2.136;2023-04-24T11:35:14;5.53;;;2.75;;
61085;SDS011;46967;48.876;2.136;2023-04-24T11:37:42;5.45;;;2.83;;
61085;SDS011;46967;48.876;2.136;2023-04-24T11:40:11;5.78;;;2.88;;
61085;SDS011;46967;48.876;2.136;2023-04-24T11:42:39;6.93;;;3.22;;
61085;SDS011;46967;48.876;2.136;2023-04-24T11:45:15;5.65;;;3.30;;
61085;SDS011;46967;48.876;2.136;2023-04-24T11:47:43;3.00;;;2.20;;
61085;SDS011;46967;48.876;2.136;2023-04-24T11:50:11;6.07;;;2.60;;
61085;SDS011;46967;48.876;2.136;2023-04-24T11:52:39;6.55;;;2.50;;
61085;SDS011;46967;48.876;2.136;2023-04-24T11:55:06;5.57;;;2.50;;
61085;SDS011;46967;48.876;2.136;2023-04-24T11:57:48;4.32;;;2.33;;
61085;SDS011;46967;48.876;2.136;2023-04-24T12:00:18;8.13;;;2.47;;
61085;SDS011;46967;48.876;2.136;2023-04-24T12:02:48;2.45;;;1.80;;
61085;SDS011;46967;48.876;2.136;2023-04-24T12:05:25;4.03;;;2.10;;
61085;SDS011;46967;48.876;2.136;2023-04-24T12:07:52;4.40;;;1.83;;
61085;SDS011;46967;48.876;2.136;2023-04-24T12:10:21;4.20;;;1.70;;
61085;SDS011;46967;48.876;2.136;2023-04-24T12:12:48;2.92;;;1.48;;
61085;SDS011;46967;48.876;2.136;2023-04-24T12:15:15;3.85;;;1.80;;
61085;SDS011;46967;48.876;2.136;2023-04-24T12:17:41;4.57;;;1.60;;
61085;SDS011;46967;48.876;2.136;2023-04-24T12:20:07;2.50;;;1.88;;
61085;SDS011;46967;48.876;2.136;2023-04-24T12:22:47;5.57;;;1.85;;
61085;SDS011;46967;48.876;2.136;2023-04-24T12:25:18;2.13;;;1.58;;
61085;SDS011;46967;48.876;2.136;2023-04-24T12:27:44;3.10;;;1.45;;
61085;SDS011;46967;48.876;2.136;2023-04-24T12:30:19;2.30;;;1.60;;
61085;SDS011;46967;48.876;2.136;2023-04-24T12:32:46;3.00;;;1.70;;
61085;SDS011;46967;48.876;2.136;2023-04-24T12:35:13;6.57;;;1.83;;
61085;SDS011;46967;48.876;2.136;2023-04-24T12:37:43;12.50;;;1.50;;
61085;SDS011;46967;48.876;2.136;2023-04-24T12:40:09;2.85;;;1.20;;
61085;SDS011;46967;48.876;2.136;2023-04-24T12:42:41;2.63;;;1.40;;
61085;SDS011;46967;48.876;2.136;2023-04-24T12:45:08;1.50;;;1.10;;
61085;SDS011;46967;48.876;2.136;2023-04-24T12:47:34;2.80;;;1.33;;
61085;SDS011;46967;48.876;2.136;2023-04-24T12:50:00;5.00;;;1.60;;
61085;SDS011;46967;48.876;2.136;2023-04-24T12:52:27;2.13;;;1.30;;
61085;SDS011;46967;48.876;2.136;2023-04-24T12:54:55;5.03;;;1.52;;
61085;SDS011;46967;48.876;2.136;2023-04-24T12:57:22;2.67;;;1.40;;
61085;SDS011;46967;48.876;2.136;2023-04-24T12:59:48;2.17;;;1.40;;
61085;SDS011;46967;48.876;2.136;2023-04-24T13:02:14;3.83;;;1.52;;
61085;SDS011;46967;48.876;2.136;2023-04-24T13:04:42;6.25;;;1.48;;
61085;SDS011;46967;48.876;2.136;2023-04-24T13:07:08;5.70;;;1.60;;
61085;SDS011;46967;48.876;2.136;2023-04-24T13:09:34;2.53;;;1.67;;
61085;SDS011;46967;48.876;2.136;2023-04-24T13:12:00;4.68;;;1.67;;
61085;SDS011;46967;48.876;2.136;2023-04-24T13:14:25;4.97;;;1.40;;
61085;SDS011;46967;48.876;2.136;2023-04-24T13:16:51;4.03;;;1.50;;
61085;SDS011;46967;48.876;2.136;2023-04-24T13:19:16;2.67;;;1.17;;
61085;SDS011;46967;48.876;2.136;2023-04-24T13:21:42;2.92;;;1.30;;
61085;SDS011;46967;48.876;2.136;2023-04-24T13:24:08;4.32;;;1.50;;
61085;SDS011;46967;48.876;2.136;2023-04-24T13:26:34;5.65;;;1.85;;
61085;SDS011;46967;48.876;2.136;2023-04-24T13:29:00;3.63;;;1.40;;
61085;SDS011;46967;48.876;2.136;2023-04-24T13:31:25;2.88;;;1.33;;
61085;SDS011;46967;48.876;2.136;2023-04-24T13:33:50;3.80;;;1.63;;
61085;SDS011;46967;48.876;2.136;2023-04-24T13:36:16;3.95;;;1.40;;
61085;SDS011;46967;48.876;2.136;2023-04-24T13:38:42;4.10;;;1.50;;
61085;SDS011;46967;48.876;2.136;2023-04-24T13:41:09;4.15;;;1.42;;
61085;SDS011;46967;48.876;2.136;2023-04-24T13:43:34;4.20;;;2.75;;
61085;SDS011;46967;48.876;2.136;2023-04-24T13:46:00;4.95;;;1.50;;
61085;SDS011;46967;48.876;2.136;2023-04-24T13:48:27;4.32;;;1.40;;
61085;SDS011;46967;48.876;2.136;2023-04-24T13:50:53;4.82;;;1.52;;
61085;SDS011;46967;48.876;2.136;2023-04-24T13:53:22;3.95;;;1.50;;
61085;SDS011;46967;48.876;2.136;2023-04-24T13:55:47;2.22;;;1.30;;
61085;SDS011;46967;48.876;2.136;2023-04-24T13:58:12;5.45;;;1.30;;
61085;SDS011;46967;48.876;2.136;2023-04-24T14:00:38;3.03;;;1.35;;
61085;SDS011;46967;48.876;2.136;2023-04-24T14:03:04;3.95;;;1.38;;
61085;SDS011;46967;48.876;2.136;2023-04-24T14:05:29;2.38;;;1.20;;
61085;SDS011;46967;48.876;2.136;2023-04-24T14:07:54;3.83;;;1.50;;
61085;SDS011;46967;48.876;2.136;2023-04-24T14:10:20;4.45;;;1.25;;
61085;SDS011;46967;48.876;2.136;2023-04-24T14:12:45;3.75;;;1.08;;
61085;SDS011;46967;48.876;2.136;2023-04-24T14:15:10;3.22;;;1.10;;
61085;SDS011;46967;48.876;2.136;2023-04-24T14:17:38;2.85;;;0.90;;
61085;SDS011;46967;48.876;2.136;2023-04-24T14:20:04;2.28;;;0.90;;
61085;SDS011;46967;48.876;2.136;2023-04-24T14:22:29;1.92;;;0.90;;
61085;SDS011;46967;48.876;2.136;2023-04-24T14:24:55;5.00;;;1.20;;
61085;SDS011;46967;48.876;2.136;2023-04-24T14:27:20;2.25;;;1.10;;
61085;SDS011;46967;48.876;2.136;2023-04-24T14:29:46;2.15;;;1.00;;
61085;SDS011;46967;48.876;2.136;2023-04-24T14:32:11;4.50;;;1.17;;
61085;SDS011;46967;48.876;2.136;2023-04-24T14:34:36;4.20;;;1.35;;
61085;SDS011;46967;48.876;2.136;2023-04-24T14:37:02;2.72;;;1.30;;
61085;SDS011;46967;48.876;2.136;2023-04-24T14:39:28;3.13;;;1.27;;
61085;SDS011;46967;48.876;2.136;2023-04-24T14:41:53;2.85;;;1.38;;
61085;SDS011;46967;48.876;2.136;2023-04-24T14:44:19;3.83;;;1.52;;
61085;SDS011;46967;48.876;2.136;2023-04-24T14:46:44;6.18;;;1.40;;
61085;SDS011;46967;48.876;2.136;2023-04-24T14:49:10;5.13;;;1.73;;
61085;SDS011;46967;48.876;2.136;2023-04-24T14:51:37;3.08;;;1.38;;
61085;SDS011;46967;48.876;2.136;2023-04-24T14:54:02;5.82;;;1.40;;